createdAt,value
2022-08-02T00:00:26.050Z,18.62
2022-08-02T00:01:25.112Z,18.60
2022-08-02T00:02:25.017Z,18.59
2022-08-02T00:03:25.016Z,18.58
2022-08-02T00:04:24.993Z,18.53
2022-08-02T00:05:24.981Z,18.52
2022-08-02T00:06:24.969Z,18.49
2022-08-02T00:07:24.959Z,18.45
2022-08-02T00:08:24.950Z,18.44
2022-08-02T00:09:24.939Z,18.44
2022-08-02T00:10:24.929Z,18.44
2022-08-02T00:11:28.937Z,18.43
2022-08-02T00:12:27.911Z,18.43
2022-08-02T00:13:24.914Z,18.40
2022-08-02T00:14:24.905Z,18.38
2022-08-02T00:15:24.876Z,18.37
2022-08-02T00:16:38.342Z,18.37
2022-08-02T00:17:24.854Z,18.35
2022-08-02T00:18:24.856Z,18.35
2022-08-02T00:19:24.849Z,18.33
2022-08-02T00:20:24.829Z,18.31
2022-08-02T00:21:24.823Z,18.29
2022-08-02T00:22:24.853Z,18.25
2022-08-02T00:23:24.815Z,18.25
2022-08-02T00:24:28.543Z,18.25
2022-08-02T00:25:24.763Z,18.23
2022-08-02T00:26:24.758Z,18.22
2022-08-02T00:27:27.746Z,18.19
2022-08-02T00:28:27.875Z,18.16
2022-08-02T00:29:24.729Z,18.11
2022-08-02T00:30:24.710Z,18.07
2022-08-02T00:31:24.721Z,18.07
2022-08-02T00:32:24.693Z,18.04
2022-08-02T00:34:26.254Z,18.03
2022-08-02T00:34:28.781Z,18.03
2022-08-02T00:35:24.669Z,18.04
2022-08-02T00:36:24.669Z,18.04
2022-08-02T00:37:24.637Z,18.04
2022-08-02T00:38:24.671Z,18.04
2022-08-02T00:39:34.776Z,18.04
2022-08-02T00:40:24.610Z,18.03
2022-08-02T00:41:24.604Z,18.04
2022-08-02T00:42:27.591Z,18.03
2022-08-02T00:43:24.596Z,18.00
2022-08-02T00:44:24.561Z,17.98
2022-08-02T00:46:03.191Z,17.98
2022-08-02T00:46:25.550Z,17.97
2022-08-02T00:47:24.542Z,17.92
2022-08-02T00:48:24.527Z,17.90
2022-08-02T00:49:24.627Z,17.87
2022-08-02T00:50:24.502Z,17.85
2022-08-02T00:51:24.492Z,17.80
2022-08-02T00:52:24.481Z,17.79
2022-08-02T00:53:24.514Z,17.78
2022-08-02T00:54:24.468Z,17.78
2022-08-02T00:55:31.156Z,17.78
2022-08-02T00:56:24.444Z,17.78
2022-08-02T00:57:27.425Z,17.76
2022-08-02T00:58:24.456Z,17.78
2022-08-02T00:59:24.408Z,17.76
2022-08-02T01:00:24.402Z,17.76
2022-08-02T01:01:24.447Z,17.68
2022-08-02T01:02:24.390Z,17.68
2022-08-02T01:03:24.380Z,17.67
2022-08-02T01:04:30.432Z,17.67
2022-08-02T01:05:24.368Z,17.64
2022-08-02T01:06:24.339Z,17.64
2022-08-02T01:07:24.374Z,17.64
2022-08-02T01:08:29.471Z,17.59
2022-08-02T01:09:24.333Z,17.59
2022-08-02T01:10:24.290Z,17.59
2022-08-02T01:11:24.292Z,17.57
2022-08-02T01:12:27.299Z,17.54
2022-08-02T01:13:24.278Z,17.52
2022-08-02T01:14:24.267Z,17.48
2022-08-02T01:15:24.241Z,17.46
2022-08-02T01:16:24.241Z,17.44
2022-08-02T01:17:24.222Z,17.42
2022-08-02T01:18:24.212Z,17.42
2022-08-02T01:19:24.201Z,17.44
2022-08-02T01:20:24.184Z,17.42
2022-08-02T01:21:24.183Z,17.39
2022-08-02T01:22:39.476Z,17.41
2022-08-02T01:23:25.154Z,17.39
2022-08-02T01:24:24.156Z,17.38
2022-08-02T01:25:24.136Z,17.39
2022-08-02T01:26:24.137Z,17.38
2022-08-02T01:27:27.116Z,17.39
2022-08-02T01:28:24.139Z,17.38
2022-08-02T01:29:24.118Z,17.36
2022-08-02T01:30:24.084Z,17.34
2022-08-02T01:31:24.096Z,17.34
2022-08-02T01:32:24.069Z,17.31
2022-08-02T01:33:24.048Z,17.31
2022-08-02T01:34:24.068Z,17.29
2022-08-02T01:35:24.060Z,17.27
2022-08-02T01:36:24.029Z,17.26
2022-08-02T01:37:24.016Z,17.23
2022-08-02T01:38:24.000Z,17.22
2022-08-02T01:39:26.974Z,17.19
2022-08-02T01:40:24.019Z,17.15
2022-08-02T01:41:23.972Z,17.14
2022-08-02T01:42:26.979Z,17.12
2022-08-02T01:43:23.975Z,17.14
2022-08-02T01:44:27.610Z,17.12
2022-08-02T01:45:23.943Z,17.12
2022-08-02T01:46:23.916Z,17.12
2022-08-02T01:47:23.911Z,17.11
2022-08-02T01:48:23.894Z,17.08
2022-08-02T01:49:23.959Z,17.08
2022-08-02T01:50:23.885Z,17.08
2022-08-02T01:51:23.972Z,17.06
2022-08-02T01:52:23.854Z,17.05
2022-08-02T01:53:23.843Z,17.05
2022-08-02T01:54:23.867Z,17.02
2022-08-02T01:55:23.819Z,17.02
2022-08-02T01:56:24.815Z,17.02
2022-08-02T01:57:26.798Z,17.02
2022-08-02T01:58:23.807Z,17.02
2022-08-02T01:59:23.783Z,17.02
2022-08-02T02:00:23.776Z,17.01
2022-08-02T02:01:23.772Z,17.01
2022-08-02T02:02:23.754Z,17.01
2022-08-02T02:03:23.735Z,17.01
2022-08-02T02:04:23.726Z,17.01
2022-08-02T02:05:23.740Z,16.99
2022-08-02T02:06:23.709Z,16.97
2022-08-02T02:07:23.699Z,16.97
2022-08-02T02:08:27.426Z,16.94
2022-08-02T02:09:23.680Z,16.93
2022-08-02T02:10:23.679Z,16.91
2022-08-02T02:12:06.446Z,16.90
2022-08-02T02:12:27.643Z,16.90
2022-08-02T02:13:27.205Z,16.89
2022-08-02T02:14:23.625Z,16.86
2022-08-02T02:15:23.609Z,16.84
2022-08-02T02:16:23.599Z,16.83
2022-08-02T02:18:11.498Z,16.81
2022-08-02T02:18:24.582Z,16.81
2022-08-02T02:19:23.579Z,16.83
2022-08-02T02:20:23.561Z,16.79
2022-08-02T02:21:23.543Z,16.76
2022-08-02T02:22:23.552Z,16.75
2022-08-02T02:23:25.929Z,16.75
2022-08-02T02:24:23.513Z,16.74
2022-08-02T02:25:30.495Z,16.72
2022-08-02T02:26:31.185Z,16.72
2022-08-02T02:27:26.493Z,16.71
2022-08-02T02:28:23.596Z,16.71
2022-08-02T02:29:23.463Z,16.72
2022-08-02T02:30:23.465Z,16.71
2022-08-02T02:31:23.463Z,16.71
2022-08-02T02:32:23.437Z,16.69
2022-08-02T02:33:27.644Z,16.68
2022-08-02T02:34:23.419Z,16.69
2022-08-02T02:35:23.399Z,16.69
2022-08-02T02:36:23.436Z,16.68
2022-08-02T02:37:23.382Z,16.66
2022-08-02T02:38:23.371Z,16.66
2022-08-02T02:39:23.359Z,16.65
2022-08-02T02:40:23.360Z,16.64
2022-08-02T02:41:23.341Z,16.61
2022-08-02T02:42:26.332Z,16.61
2022-08-02T02:43:23.331Z,16.60
2022-08-02T02:44:23.314Z,16.58
2022-08-02T02:45:23.303Z,16.57
2022-08-02T02:46:23.295Z,16.56
2022-08-02T02:47:23.312Z,16.57
2022-08-02T02:48:24.271Z,16.56
2022-08-02T02:49:23.338Z,16.56
2022-08-02T02:50:23.254Z,16.54
2022-08-02T02:51:23.235Z,16.51
2022-08-02T02:52:23.231Z,16.50
2022-08-02T02:53:23.217Z,16.49
2022-08-02T02:54:30.250Z,16.47
2022-08-02T02:55:23.192Z,16.47
2022-08-02T02:56:23.184Z,16.46
2022-08-02T02:57:26.176Z,16.46
2022-08-02T02:58:28.892Z,16.46
2022-08-02T02:59:23.144Z,16.47
2022-08-02T03:00:23.144Z,16.47
2022-08-02T03:01:53.198Z,16.47
2022-08-02T03:02:24.116Z,16.46
2022-08-02T03:03:23.135Z,16.46
2022-08-02T03:04:23.097Z,16.42
2022-08-02T03:05:24.090Z,16.43
2022-08-02T03:06:23.080Z,16.43
2022-08-02T03:07:23.077Z,16.43
2022-08-02T03:08:23.069Z,16.46
2022-08-02T03:09:23.040Z,16.46
2022-08-02T03:10:23.067Z,16.42
2022-08-02T03:11:23.029Z,16.42
2022-08-02T03:12:31.272Z,16.38
2022-08-02T03:13:23.021Z,16.33
2022-08-02T03:14:23.000Z,16.32
2022-08-02T03:15:22.980Z,16.31
2022-08-02T03:16:22.973Z,16.29
2022-08-02T03:17:22.992Z,16.29
2022-08-02T03:18:22.990Z,16.28
2022-08-02T03:19:22.972Z,16.21
2022-08-02T03:20:23.930Z,16.17
2022-08-02T03:21:22.934Z,16.16
2022-08-02T03:22:22.914Z,16.15
2022-08-02T03:23:22.903Z,16.15
2022-08-02T03:24:27.568Z,16.13
2022-08-02T03:25:22.884Z,16.13
2022-08-02T03:26:22.903Z,16.13
2022-08-02T03:27:25.858Z,16.09
2022-08-02T03:28:22.815Z,16.05
2022-08-02T03:29:22.787Z,16.02
2022-08-02T03:30:22.828Z,16.01
2022-08-02T03:31:22.820Z,16.02
2022-08-02T03:32:22.808Z,16.02
2022-08-02T03:33:22.746Z,16.04
2022-08-02T03:34:22.792Z,16.04
2022-08-02T03:35:24.591Z,16.02
2022-08-02T03:36:22.705Z,16.02
2022-08-02T03:37:22.805Z,16.02
2022-08-02T03:38:22.697Z,16.01
2022-08-02T03:39:22.673Z,15.98
2022-08-02T03:40:22.671Z,15.95
2022-08-02T03:41:22.663Z,15.94
2022-08-02T03:42:25.660Z,15.95
2022-08-02T03:43:22.654Z,15.97
2022-08-02T03:44:22.628Z,15.95
2022-08-02T03:45:22.612Z,15.95
2022-08-02T03:46:22.599Z,15.95
2022-08-02T03:47:22.589Z,15.97
2022-08-02T03:48:34.105Z,15.95
2022-08-02T03:49:22.623Z,15.97
2022-08-02T03:50:22.562Z,15.95
2022-08-02T03:51:22.554Z,15.98
2022-08-02T03:52:22.532Z,15.97
2022-08-02T03:53:22.522Z,15.95
2022-08-02T03:54:22.521Z,15.95
2022-08-02T03:55:22.513Z,15.95
2022-08-02T03:56:23.622Z,15.94
2022-08-02T03:57:25.513Z,15.94
2022-08-02T03:58:22.497Z,15.92
2022-08-02T03:59:22.464Z,15.92
2022-08-02T04:00:22.453Z,15.94
2022-08-02T04:01:22.486Z,15.92
2022-08-02T04:02:22.457Z,15.92
2022-08-02T04:03:22.437Z,15.91
2022-08-02T04:04:22.444Z,15.91
2022-08-02T04:05:22.396Z,15.91
2022-08-02T04:06:27.318Z,15.91
2022-08-02T04:08:33.315Z,15.91
2022-08-02T04:08:36.031Z,15.92
2022-08-02T04:09:22.356Z,15.92
2022-08-02T04:10:22.352Z,15.90
2022-08-02T04:11:22.339Z,15.88
2022-08-02T04:12:25.441Z,15.84
2022-08-02T04:13:22.329Z,15.86
2022-08-02T04:14:22.311Z,15.86
2022-08-02T04:15:22.291Z,15.86
2022-08-02T04:16:22.302Z,15.84
2022-08-02T04:17:22.298Z,15.84
2022-08-02T04:18:22.269Z,15.83
2022-08-02T04:19:22.252Z,15.83
2022-08-02T04:20:22.237Z,15.83
2022-08-02T04:21:22.230Z,15.83
2022-08-02T04:22:23.251Z,15.83
2022-08-02T04:23:22.207Z,15.83
2022-08-02T04:24:22.931Z,15.84
2022-08-02T04:25:34.461Z,15.83
2022-08-02T04:26:26.955Z,15.83
2022-08-02T04:27:50.745Z,15.82
2022-08-02T04:28:27.645Z,15.80
2022-08-02T04:29:22.151Z,15.82
2022-08-02T04:30:22.143Z,15.80
2022-08-02T04:31:22.166Z,15.80
2022-08-02T04:32:22.113Z,15.83
2022-08-02T04:33:22.103Z,15.82
2022-08-02T04:34:22.124Z,15.82
2022-08-02T04:35:22.089Z,15.80
2022-08-02T04:36:31.723Z,15.82
2022-08-02T04:37:22.058Z,15.83
2022-08-02T04:38:22.047Z,15.86
2022-08-02T04:39:22.035Z,15.88
2022-08-02T04:40:22.035Z,15.86
2022-08-02T04:41:22.039Z,15.91
2022-08-02T04:42:25.007Z,15.92
2022-08-02T04:43:22.029Z,15.92
2022-08-02T04:44:21.988Z,15.92
2022-08-02T04:45:21.978Z,15.92
2022-08-02T04:46:21.969Z,15.92
2022-08-02T04:47:54.339Z,15.90
2022-08-02T04:48:22.968Z,15.88
2022-08-02T04:49:21.982Z,15.90
2022-08-02T04:50:21.932Z,15.90
2022-08-02T04:51:21.911Z,15.88
2022-08-02T04:52:22.899Z,15.91
2022-08-02T04:53:21.911Z,15.91
2022-08-02T04:54:21.879Z,15.92
2022-08-02T04:55:21.876Z,15.92
2022-08-02T04:56:21.882Z,15.92
2022-08-02T04:57:24.860Z,15.95
2022-08-02T04:58:40.017Z,15.94
2022-08-02T04:59:22.834Z,15.94
2022-08-02T05:00:21.863Z,15.94
2022-08-02T05:01:21.865Z,15.94
2022-08-02T05:02:21.873Z,15.94
2022-08-02T05:03:21.796Z,15.95
2022-08-02T05:04:21.779Z,15.94
2022-08-02T05:05:21.765Z,15.97
2022-08-02T05:06:21.786Z,15.98
2022-08-02T05:07:21.745Z,16.00
2022-08-02T05:08:21.735Z,16.02
2022-08-02T05:09:21.727Z,16.08
2022-08-02T05:10:21.715Z,16.08
2022-08-02T05:11:21.729Z,16.10
2022-08-02T05:12:24.695Z,16.13
2022-08-02T05:13:21.697Z,16.16
2022-08-02T05:14:21.676Z,16.17
2022-08-02T05:15:21.667Z,16.17
2022-08-02T05:16:21.667Z,16.24
2022-08-02T05:17:21.636Z,16.26
2022-08-02T05:18:21.667Z,16.31
2022-08-02T05:19:21.619Z,16.33
2022-08-02T05:20:21.614Z,16.36
2022-08-02T05:21:21.599Z,16.39
2022-08-02T05:22:21.591Z,16.41
2022-08-02T05:23:21.579Z,16.46
2022-08-02T05:24:21.569Z,16.49
2022-08-02T05:25:21.580Z,16.51
2022-08-02T05:26:21.538Z,16.51
2022-08-02T05:27:24.551Z,16.54
2022-08-02T05:28:21.551Z,16.54
2022-08-02T05:29:21.513Z,16.57
2022-08-02T05:30:21.515Z,16.58
2022-08-02T05:31:21.501Z,16.61
2022-08-02T05:32:25.010Z,16.66
2022-08-02T05:33:21.493Z,16.66
2022-08-02T05:34:21.455Z,16.69
2022-08-02T05:35:21.465Z,16.74
2022-08-02T05:36:21.767Z,16.75
2022-08-02T05:37:21.431Z,16.76
2022-08-02T05:38:26.012Z,16.79
2022-08-02T05:39:21.405Z,16.81
2022-08-02T05:40:25.300Z,16.83
2022-08-02T05:41:21.385Z,16.87
2022-08-02T05:42:24.375Z,16.89
2022-08-02T05:43:21.377Z,16.90
2022-08-02T05:44:21.353Z,16.90
2022-08-02T05:45:21.345Z,16.91
2022-08-02T05:46:21.327Z,16.96
2022-08-02T05:47:21.337Z,16.97
2022-08-02T05:48:21.327Z,17.01
2022-08-02T05:49:22.451Z,17.01
2022-08-02T05:50:21.291Z,17.01
2022-08-02T05:51:21.280Z,17.04
2022-08-02T05:52:21.284Z,17.05
2022-08-02T05:53:21.279Z,17.06
2022-08-02T05:54:21.248Z,17.09
2022-08-02T05:55:21.253Z,17.11
2022-08-02T05:56:21.221Z,17.12
2022-08-02T05:57:24.211Z,17.15
2022-08-02T05:58:21.223Z,17.20
2022-08-02T05:59:21.191Z,17.27
2022-08-02T06:00:21.213Z,17.29
2022-08-02T06:01:21.195Z,17.34
2022-08-02T06:02:21.238Z,17.36
2022-08-02T06:03:21.152Z,17.42
2022-08-02T06:04:21.135Z,17.46
2022-08-02T06:05:21.155Z,17.52
2022-08-02T06:06:21.133Z,17.56
2022-08-02T06:07:21.123Z,17.63
2022-08-02T06:08:21.096Z,17.68
2022-08-02T06:09:23.122Z,17.76
2022-08-02T06:10:21.087Z,17.80
2022-08-02T06:11:21.110Z,17.87
2022-08-02T06:12:24.064Z,17.92
2022-08-02T06:13:21.067Z,17.97
2022-08-02T06:14:21.045Z,18.01
2022-08-02T06:15:21.016Z,18.10
2022-08-02T06:16:32.602Z,18.16
2022-08-02T06:17:20.996Z,18.22
2022-08-02T06:18:27.618Z,18.28
2022-08-02T06:19:20.986Z,18.33
2022-08-02T06:20:20.982Z,18.35
2022-08-02T06:22:34.076Z,18.40
2022-08-02T06:22:34.141Z,18.45
2022-08-02T06:23:20.938Z,18.50
2022-08-02T06:24:20.930Z,18.55
2022-08-02T06:25:50.476Z,18.60
2022-08-02T06:27:23.951Z,18.68
2022-08-02T06:28:20.900Z,18.73
2022-08-02T06:29:20.870Z,18.75
2022-08-02T06:30:20.870Z,18.78
2022-08-02T06:32:20.843Z,18.86
2022-08-02T06:33:20.834Z,18.90
2022-08-02T06:34:20.841Z,18.95
2022-08-02T06:35:20.815Z,19.00
2022-08-02T06:36:20.811Z,19.07
2022-08-02T06:37:20.806Z,19.11
2022-08-02T06:38:20.790Z,19.14
2022-08-02T06:39:20.771Z,19.16
2022-08-02T06:40:20.797Z,19.21
2022-08-02T06:41:20.754Z,19.26
2022-08-02T06:42:25.639Z,19.29
2022-08-02T06:43:20.750Z,19.36
2022-08-02T06:44:45.955Z,19.41
2022-08-02T06:45:21.723Z,19.49
2022-08-02T06:46:43.015Z,19.56
2022-08-02T06:47:20.695Z,19.64
2022-08-02T06:48:20.702Z,19.70
2022-08-02T06:49:20.731Z,19.76
2022-08-02T06:50:20.675Z,19.88
2022-08-02T06:52:23.247Z,20.34
2022-08-02T06:53:20.661Z,20.66
2022-08-02T06:54:20.617Z,20.96
2022-08-02T06:55:20.610Z,21.18
2022-08-02T06:56:20.601Z,21.35
2022-08-02T06:57:23.579Z,21.43
2022-08-02T06:58:20.582Z,21.51
2022-08-02T06:59:20.561Z,21.57
2022-08-02T07:00:20.584Z,21.66
2022-08-02T07:01:20.582Z,21.66
2022-08-02T07:02:20.534Z,21.73
2022-08-02T07:03:20.518Z,21.93
2022-08-02T07:04:20.512Z,22.11
2022-08-02T07:05:20.535Z,22.22
2022-08-02T07:06:20.492Z,22.25
2022-08-02T07:07:20.488Z,22.23
2022-08-02T07:08:20.474Z,22.30
2022-08-02T07:09:21.801Z,22.35
2022-08-02T07:10:20.451Z,22.25
2022-08-02T07:11:20.434Z,22.48
2022-08-02T07:12:23.426Z,22.69
2022-08-02T07:13:20.437Z,22.88
2022-08-02T07:14:20.421Z,23.00
2022-08-02T07:15:20.398Z,23.18
2022-08-02T07:16:20.425Z,23.28
2022-08-02T07:17:20.375Z,23.27
2022-08-02T07:18:20.369Z,23.24
2022-08-02T07:19:20.356Z,23.18
2022-08-02T07:20:21.382Z,23.20
2022-08-02T07:21:56.004Z,23.40
2022-08-02T07:22:21.331Z,23.58
2022-08-02T07:23:20.318Z,23.65
2022-08-02T07:24:20.300Z,23.81
2022-08-02T07:25:20.289Z,23.88
2022-08-02T07:26:20.292Z,23.95
2022-08-02T07:27:23.271Z,24.02
2022-08-02T07:28:24.312Z,24.10
2022-08-02T07:29:20.239Z,24.20
2022-08-02T07:30:20.242Z,24.21
2022-08-02T07:31:20.233Z,24.32
2022-08-02T07:32:20.220Z,24.50
2022-08-02T07:33:37.516Z,24.66
2022-08-02T07:34:21.191Z,24.78
2022-08-02T07:35:20.205Z,24.84
2022-08-02T07:36:22.693Z,24.95
2022-08-02T07:37:35.015Z,25.11
2022-08-02T07:38:21.154Z,25.26
2022-08-02T07:39:20.143Z,25.17
2022-08-02T07:40:21.012Z,25.08
2022-08-02T07:41:20.128Z,25.06
2022-08-02T07:42:23.112Z,25.08
2022-08-02T07:43:20.121Z,25.26
2022-08-02T07:44:20.097Z,25.51
2022-08-02T07:45:20.199Z,25.65
2022-08-02T07:46:20.075Z,25.78
2022-08-02T07:47:20.068Z,25.96
2022-08-02T07:48:20.047Z,26.13
2022-08-02T07:49:20.121Z,26.07
2022-08-02T07:50:20.060Z,26.21
2022-08-02T07:51:20.016Z,26.29
2022-08-02T07:52:20.001Z,26.31
2022-08-02T07:53:19.989Z,26.23
2022-08-02T07:54:20.995Z,26.40
2022-08-02T07:55:19.992Z,26.51
2022-08-02T07:56:19.963Z,26.56
2022-08-02T07:57:22.965Z,26.56
2022-08-02T07:58:19.973Z,26.59
2022-08-02T07:59:19.933Z,26.71
2022-08-02T08:00:19.921Z,26.84
2022-08-02T08:01:19.966Z,26.81
2022-08-02T08:02:19.903Z,26.78
2022-08-02T08:03:19.932Z,26.93
2022-08-02T08:04:19.883Z,27.14
2022-08-02T08:05:19.878Z,27.22
2022-08-02T08:06:19.858Z,27.37
2022-08-02T08:07:19.848Z,27.49
2022-08-02T08:08:19.837Z,27.49
2022-08-02T08:09:19.825Z,27.49
2022-08-02T08:10:19.823Z,27.48
2022-08-02T08:11:19.827Z,27.40
2022-08-02T08:12:22.796Z,27.35
2022-08-02T08:13:19.797Z,27.40
2022-08-02T08:14:19.776Z,27.45
2022-08-02T08:15:19.765Z,27.39
2022-08-02T08:16:19.769Z,27.44
2022-08-02T08:17:19.738Z,27.64
2022-08-02T08:18:19.780Z,27.77
2022-08-02T08:19:19.722Z,27.82
2022-08-02T08:20:20.712Z,27.86
2022-08-02T08:21:19.692Z,27.93
2022-08-02T08:22:19.688Z,27.96
2022-08-02T08:23:19.676Z,27.96
2022-08-02T08:25:19.653Z,27.90
2022-08-02T08:26:19.651Z,27.80
2022-08-02T08:27:22.654Z,27.74
2022-08-02T08:28:19.640Z,27.78
2022-08-02T08:29:19.638Z,27.90
2022-08-02T08:30:19.603Z,28.10
2022-08-02T08:31:19.587Z,28.07
2022-08-02T08:32:20.099Z,28.12
2022-08-02T08:33:19.574Z,28.01
2022-08-02T08:34:19.563Z,27.83
2022-08-02T08:35:19.554Z,27.87
2022-08-02T08:36:19.538Z,28.00
2022-08-02T08:37:19.534Z,28.15
2022-08-02T08:38:19.629Z,28.26
2022-08-02T08:39:19.513Z,28.45
2022-08-02T08:40:19.941Z,28.64
2022-08-02T08:41:19.499Z,28.66
2022-08-02T08:42:22.480Z,28.70
2022-08-02T08:43:19.482Z,28.70
2022-08-02T08:44:19.462Z,28.63
2022-08-02T08:45:19.442Z,28.49
2022-08-02T08:46:19.520Z,28.42
2022-08-02T08:47:19.438Z,28.38
2022-08-02T08:48:25.792Z,28.27
2022-08-02T08:49:19.482Z,28.37
2022-08-02T08:50:24.384Z,28.48
2022-08-02T08:51:19.383Z,28.48
2022-08-02T08:52:19.365Z,28.47
2022-08-02T08:53:20.452Z,28.38
2022-08-02T08:54:19.344Z,28.17
2022-08-02T08:55:19.336Z,28.01
2022-08-02T08:56:19.323Z,27.96
2022-08-02T08:57:22.340Z,27.95
2022-08-02T08:58:19.376Z,27.95
2022-08-02T08:59:19.295Z,27.92
2022-08-02T09:00:19.336Z,27.92
2022-08-02T09:01:19.295Z,27.87
2022-08-02T09:02:21.550Z,27.78
2022-08-02T09:03:19.257Z,27.70
2022-08-02T09:04:19.247Z,27.51
2022-08-02T09:05:19.229Z,27.51
2022-08-02T09:06:19.238Z,27.67
2022-08-02T09:07:19.218Z,27.73
2022-08-02T09:08:19.210Z,27.93
2022-08-02T09:09:19.198Z,27.83
2022-08-02T09:10:19.189Z,28.01
2022-08-02T09:11:19.198Z,28.10
2022-08-02T09:12:22.224Z,28.07
2022-08-02T09:13:38.443Z,28.20
2022-08-02T09:14:20.154Z,28.32
2022-08-02T09:15:19.132Z,28.48
2022-08-02T09:16:19.121Z,28.52
2022-08-02T09:17:22.021Z,28.63
2022-08-02T09:18:19.135Z,28.69
2022-08-02T09:19:19.089Z,28.79
2022-08-02T09:20:19.193Z,28.88
2022-08-02T09:21:19.065Z,28.86
2022-08-02T09:22:19.063Z,28.89
2022-08-02T09:23:19.048Z,28.97
2022-08-02T09:24:19.064Z,29.02
2022-08-02T09:25:19.027Z,29.08
2022-08-02T09:26:19.009Z,29.17
2022-08-02T09:27:22.010Z,29.23
2022-08-02T09:28:19.011Z,29.34
2022-08-02T09:29:19.012Z,29.34
2022-08-02T09:30:19.596Z,29.38
2022-08-02T09:31:18.974Z,29.47
2022-08-02T09:32:18.952Z,29.41
2022-08-02T09:33:18.953Z,29.17
2022-08-02T09:34:19.669Z,29.19
2022-08-02T09:35:18.941Z,29.14
2022-08-02T09:37:18.907Z,29.27
2022-08-02T09:38:18.893Z,29.34
2022-08-02T09:39:18.906Z,29.47
2022-08-02T09:40:18.874Z,29.54
2022-08-02T09:41:18.856Z,29.56
2022-08-02T09:42:21.845Z,29.69
2022-08-02T09:43:18.861Z,29.75
2022-08-02T09:44:18.874Z,29.79
2022-08-02T09:45:18.816Z,29.81
2022-08-02T09:46:18.816Z,29.76
2022-08-02T09:47:18.795Z,29.78
2022-08-02T09:48:18.809Z,29.88
2022-08-02T09:49:18.989Z,29.94
2022-08-02T09:50:18.759Z,29.87
2022-08-02T09:51:18.749Z,30.00
2022-08-02T09:52:18.768Z,30.08
2022-08-02T09:53:18.738Z,30.16
2022-08-02T09:54:18.734Z,30.16
2022-08-02T09:55:18.708Z,30.25
2022-08-02T09:56:35.089Z,30.12
2022-08-02T09:57:21.734Z,29.69
2022-08-02T09:58:18.705Z,29.50
2022-08-02T09:59:18.695Z,29.61
2022-08-02T10:00:31.473Z,29.71
2022-08-02T10:01:19.681Z,29.73
2022-08-02T10:02:20.539Z,29.81
2022-08-02T10:03:22.056Z,29.82
2022-08-02T10:04:21.271Z,29.79
2022-08-02T10:05:18.616Z,29.78
2022-08-02T10:06:18.602Z,29.86
2022-08-02T10:07:18.685Z,29.93
2022-08-02T10:08:18.598Z,30.09
2022-08-02T10:09:18.572Z,30.25
2022-08-02T10:10:18.609Z,30.37
2022-08-02T10:11:18.617Z,30.27
2022-08-02T10:12:21.537Z,30.10
2022-08-02T10:13:21.677Z,29.68
2022-08-02T10:14:18.519Z,29.72
2022-08-02T10:15:18.550Z,29.68
2022-08-02T10:16:18.498Z,29.49
2022-08-02T10:17:18.490Z,29.56
2022-08-02T10:18:37.651Z,29.71
2022-08-02T10:20:00.717Z,29.88
2022-08-02T10:20:19.471Z,30.12
2022-08-02T10:21:18.442Z,30.28
2022-08-02T10:22:19.413Z,30.31
2022-08-02T10:23:18.424Z,30.40
2022-08-02T10:24:18.410Z,30.48
2022-08-02T10:25:18.401Z,30.57
2022-08-02T10:26:18.390Z,30.66
2022-08-02T10:27:21.406Z,30.77
2022-08-02T10:28:18.384Z,30.75
2022-08-02T10:29:18.363Z,30.70
2022-08-02T10:30:18.350Z,30.53
2022-08-02T10:31:18.337Z,30.25
2022-08-02T10:32:18.346Z,30.37
2022-08-02T10:33:18.317Z,30.54
2022-08-02T10:34:18.306Z,30.66
2022-08-02T10:35:25.134Z,30.78
2022-08-02T10:36:18.289Z,30.84
2022-08-02T10:37:18.286Z,30.99
2022-08-02T10:38:18.288Z,31.05
2022-08-02T10:39:18.260Z,31.09
2022-08-02T10:40:18.247Z,30.91
2022-08-02T10:41:18.232Z,31.00
2022-08-02T10:42:21.232Z,31.06
2022-08-02T10:43:18.251Z,31.12
2022-08-02T10:44:24.215Z,31.00
2022-08-02T10:45:18.203Z,30.97
2022-08-02T10:46:18.192Z,31.00
2022-08-02T10:47:18.181Z,31.05
2022-08-02T10:48:18.175Z,31.02
2022-08-02T10:49:38.655Z,31.10
2022-08-02T10:50:19.152Z,31.24
2022-08-02T10:51:18.134Z,31.28
2022-08-02T10:52:18.124Z,31.21
2022-08-02T10:53:18.121Z,30.91
2022-08-02T10:54:18.142Z,30.85
2022-08-02T10:55:22.403Z,30.70
2022-08-02T10:56:18.144Z,30.62
2022-08-02T10:58:18.089Z,30.48
2022-08-02T10:59:18.058Z,30.35
2022-08-02T11:00:19.489Z,30.31
2022-08-02T11:01:18.066Z,30.43
2022-08-02T11:02:18.368Z,30.39
2022-08-02T11:03:18.009Z,30.55
2022-08-02T11:04:18.010Z,30.66
2022-08-02T11:05:18.013Z,30.72
2022-08-02T11:06:24.706Z,30.77
2022-08-02T11:07:17.983Z,30.87
2022-08-02T11:08:17.962Z,30.96
2022-08-02T11:09:17.944Z,31.05
2022-08-02T11:10:17.930Z,31.15
2022-08-02T11:11:18.598Z,31.27
2022-08-02T11:12:21.952Z,31.24
2022-08-02T11:13:17.931Z,31.12
2022-08-02T11:14:17.904Z,30.92
2022-08-02T11:15:17.888Z,30.81
2022-08-02T11:16:17.883Z,30.77
2022-08-02T11:18:17.864Z,30.53
2022-08-02T11:19:17.861Z,30.48
2022-08-02T11:20:17.842Z,30.47
2022-08-02T11:21:18.416Z,30.46
2022-08-02T11:22:21.174Z,30.40
2022-08-02T11:23:17.827Z,30.34
2022-08-02T11:24:17.797Z,30.46
2022-08-02T11:25:17.787Z,30.65
2022-08-02T11:26:17.778Z,30.84
2022-08-02T11:27:21.886Z,31.00
2022-08-02T11:28:20.722Z,31.12
2022-08-02T11:29:17.753Z,31.25
2022-08-02T11:30:17.759Z,31.40
2022-08-02T11:31:17.729Z,31.58
2022-08-02T11:32:17.726Z,31.65
2022-08-02T11:33:18.753Z,31.78
2022-08-02T11:34:36.520Z,31.85
2022-08-02T11:35:18.688Z,31.78
2022-08-02T11:36:17.682Z,31.43
2022-08-02T11:37:17.668Z,31.46
2022-08-02T11:38:17.667Z,31.52
2022-08-02T11:39:17.634Z,31.51
2022-08-02T11:40:19.654Z,31.54
2022-08-02T11:41:18.653Z,31.61
2022-08-02T11:42:21.612Z,31.58
2022-08-02T11:43:17.635Z,31.62
2022-08-02T11:44:17.728Z,31.64
2022-08-02T11:45:21.107Z,31.66
2022-08-02T11:46:17.579Z,31.78
2022-08-02T11:47:17.559Z,31.76
2022-08-02T11:48:17.549Z,31.73
2022-08-02T11:49:17.638Z,31.40
2022-08-02T11:50:17.597Z,31.31
2022-08-02T11:51:18.519Z,31.17
2022-08-02T11:52:17.519Z,31.06
2022-08-02T11:53:17.561Z,31.00
2022-08-02T11:54:17.512Z,30.80
2022-08-02T11:55:17.492Z,30.80
2022-08-02T11:56:17.990Z,30.75
2022-08-02T11:57:21.145Z,30.66
2022-08-02T11:58:17.453Z,30.75
2022-08-02T11:59:17.465Z,30.73
2022-08-02T12:00:17.423Z,30.62
2022-08-02T12:01:17.413Z,30.44
2022-08-02T12:02:17.395Z,30.43
2022-08-02T12:03:19.699Z,30.30
2022-08-02T12:04:17.388Z,30.25
2022-08-02T12:05:17.379Z,30.28
2022-08-02T12:06:18.355Z,30.21
2022-08-02T12:07:17.357Z,30.19
2022-08-02T12:08:19.256Z,30.28
2022-08-02T12:09:19.031Z,30.47
2022-08-02T12:10:19.192Z,30.51
2022-08-02T12:11:17.313Z,30.53
2022-08-02T12:12:20.299Z,30.61
2022-08-02T12:13:17.309Z,30.73
2022-08-02T12:14:17.289Z,30.87
2022-08-02T12:15:17.275Z,30.87
2022-08-02T12:16:17.254Z,30.97
2022-08-02T12:17:17.282Z,31.10
2022-08-02T12:18:17.231Z,31.21
2022-08-02T12:19:17.225Z,31.24
2022-08-02T12:20:17.259Z,31.33
2022-08-02T12:21:17.206Z,31.42
2022-08-02T12:22:17.217Z,31.40
2022-08-02T12:23:17.199Z,31.29
2022-08-02T12:24:17.174Z,31.25
2022-08-02T12:25:34.613Z,31.27
2022-08-02T12:26:18.156Z,31.18
2022-08-02T12:27:20.141Z,31.21
2022-08-02T12:28:18.028Z,31.09
2022-08-02T12:29:17.129Z,30.97
2022-08-02T12:30:27.408Z,30.96
2022-08-02T12:31:17.111Z,31.02
2022-08-02T12:32:17.126Z,30.94
2022-08-02T12:33:17.083Z,30.88
2022-08-02T12:34:17.079Z,30.92
2022-08-02T12:35:26.646Z,31.05
2022-08-02T12:36:17.049Z,31.10
2022-08-02T12:37:17.040Z,31.05
2022-08-02T12:38:17.070Z,31.21
2022-08-02T12:40:17.015Z,30.63
2022-08-02T12:41:31.708Z,30.39
2022-08-02T12:42:19.994Z,30.15
2022-08-02T12:43:17.031Z,30.18
2022-08-02T12:44:16.978Z,30.19
2022-08-02T12:45:16.956Z,30.39
2022-08-02T12:46:16.952Z,30.63
2022-08-02T12:47:16.950Z,30.80
2022-08-02T12:48:16.945Z,30.97
2022-08-02T12:49:18.699Z,31.10
2022-08-02T12:50:16.913Z,31.21
2022-08-02T12:51:16.908Z,31.34
2022-08-02T12:52:17.331Z,31.44
2022-08-02T12:53:16.925Z,31.56
2022-08-02T12:54:17.927Z,31.61
2022-08-02T12:55:17.860Z,31.65
2022-08-02T12:56:16.847Z,31.73
2022-08-02T12:57:19.840Z,31.76
2022-08-02T12:58:17.756Z,31.59
2022-08-02T13:00:16.812Z,31.05
2022-08-02T13:01:16.831Z,30.81